sensor_id;sensor_type;location;lat;lon;timestamp;P1;durP1;ratioP1;P2;durP2;ratioP2
26656;SDS011;14279;50.010;8.260;2024-02-21T00:01:47;18.63;;;6.27;;
26656;SDS011;14279;50.010;8.260;2024-02-21T00:04:12;15.70;;;5.17;;
26656;SDS011;14279;50.010;8.260;2024-02-21T00:06:37;20.37;;;5.23;;
26656;SDS011;14279;50.010;8.260;2024-02-21T00:09:03;18.93;;;5.80;;
26656;SDS011;14279;50.010;8.260;2024-02-21T00:11:28;17.93;;;5.43;;
26656;SDS011;14279;50.010;8.260;2024-02-21T00:13:53;16.60;;;5.37;;
26656;SDS011;14279;50.010;8.260;2024-02-21T00:16:19;22.17;;;6.53;;
26656;SDS011;14279;50.010;8.260;2024-02-21T00:18:44;17.50;;;5.40;;
26656;SDS011;14279;50.010;8.260;2024-02-21T00:21:10;16.57;;;5.83;;
26656;SDS011;14279;50.010;8.260;2024-02-21T00:23:40;27.20;;;6.60;;
26656;SDS011;14279;50.010;8.260;2024-02-21T00:26:05;20.97;;;6.10;;
26656;SDS011;14279;50.010;8.260;2024-02-21T00:28:30;22.10;;;5.87;;
26656;SDS011;14279;50.010;8.260;2024-02-21T00:30:56;23.07;;;6.63;;
26656;SDS011;14279;50.010;8.260;2024-02-21T00:33:21;19.63;;;5.50;;
26656;SDS011;14279;50.010;8.260;2024-02-21T00:35:46;20.50;;;5.70;;
26656;SDS011;14279;50.010;8.260;2024-02-21T00:38:12;15.37;;;5.17;;
26656;SDS011;14279;50.010;8.260;2024-02-21T00:40:37;11.93;;;5.43;;
26656;SDS011;14279;50.010;8.260;2024-02-21T00:43:02;13.60;;;5.53;;
26656;SDS011;14279;50.010;8.260;2024-02-21T00:45:28;14.33;;;5.17;;
26656;SDS011;14279;50.010;8.260;2024-02-21T00:47:53;15.27;;;5.87;;
26656;SDS011;14279;50.010;8.260;2024-02-21T00:50:18;14.27;;;5.33;;
26656;SDS011;14279;50.010;8.260;2024-02-21T00:52:44;12.40;;;5.20;;
26656;SDS011;14279;50.010;8.260;2024-02-21T00:55:09;18.03;;;5.83;;
26656;SDS011;14279;50.010;8.260;2024-02-21T00:57:35;14.87;;;5.63;;
26656;SDS011;14279;50.010;8.260;2024-02-21T01:00:04;14.50;;;5.10;;
26656;SDS011;14279;50.010;8.260;2024-02-21T01:02:29;20.70;;;5.87;;
26656;SDS011;14279;50.010;8.260;2024-02-21T01:04:58;16.70;;;5.77;;
26656;SDS011;14279;50.010;8.260;2024-02-21T01:07:23;15.67;;;5.60;;
26656;SDS011;14279;50.010;8.260;2024-02-21T01:09:49;12.10;;;5.13;;
26656;SDS011;14279;50.010;8.260;2024-02-21T01:12:16;22.10;;;6.60;;
26656;SDS011;14279;50.010;8.260;2024-02-21T01:14:41;15.47;;;5.83;;
26656;SDS011;14279;50.010;8.260;2024-02-21T01:17:06;19.13;;;6.37;;
26656;SDS011;14279;50.010;8.260;2024-02-21T01:19:32;19.77;;;5.10;;
26656;SDS011;14279;50.010;8.260;2024-02-21T01:21:57;20.40;;;6.00;;
26656;SDS011;14279;50.010;8.260;2024-02-21T01:24:22;20.30;;;5.90;;
26656;SDS011;14279;50.010;8.260;2024-02-21T01:26:49;18.23;;;5.90;;
26656;SDS011;14279;50.010;8.260;2024-02-21T01:29:14;14.43;;;5.60;;
26656;SDS011;14279;50.010;8.260;2024-02-21T01:31:39;21.03;;;6.10;;
26656;SDS011;14279;50.010;8.260;2024-02-21T01:34:05;16.50;;;5.90;;
26656;SDS011;14279;50.010;8.260;2024-02-21T01:36:30;15.10;;;5.93;;
26656;SDS011;14279;50.010;8.260;2024-02-21T01:38:55;19.50;;;5.53;;
26656;SDS011;14279;50.010;8.260;2024-02-21T01:41:20;19.20;;;5.87;;
26656;SDS011;14279;50.010;8.260;2024-02-21T01:43:46;16.50;;;5.30;;
26656;SDS011;14279;50.010;8.260;2024-02-21T01:46:11;15.60;;;6.20;;
26656;SDS011;14279;50.010;8.260;2024-02-21T01:48:36;15.50;;;5.10;;
26656;SDS011;14279;50.010;8.260;2024-02-21T01:51:02;18.70;;;5.27;;
26656;SDS011;14279;50.010;8.260;2024-02-21T01:53:30;12.63;;;4.80;;
26656;SDS011;14279;50.010;8.260;2024-02-21T01:55:57;15.87;;;6.40;;
26656;SDS011;14279;50.010;8.260;2024-02-21T01:58:23;17.70;;;5.53;;
26656;SDS011;14279;50.010;8.260;2024-02-21T02:00:48;18.03;;;5.00;;
26656;SDS011;14279;50.010;8.260;2024-02-21T02:03:15;13.87;;;4.97;;
26656;SDS011;14279;50.010;8.260;2024-02-21T02:05:47;15.60;;;5.77;;
26656;SDS011;14279;50.010;8.260;2024-02-21T02:08:14;20.93;;;6.33;;
26656;SDS011;14279;50.010;8.260;2024-02-21T02:10:40;18.70;;;5.90;;
26656;SDS011;14279;50.010;8.260;2024-02-21T02:13:06;18.37;;;5.10;;
26656;SDS011;14279;50.010;8.260;2024-02-21T02:15:41;15.73;;;5.83;;
26656;SDS011;14279;50.010;8.260;2024-02-21T02:18:13;13.63;;;5.63;;
26656;SDS011;14279;50.010;8.260;2024-02-21T02:20:39;21.00;;;5.50;;
26656;SDS011;14279;50.010;8.260;2024-02-21T02:23:38;12.70;;;5.33;;
26656;SDS011;14279;50.010;8.260;2024-02-21T02:25:57;14.73;;;5.37;;
26656;SDS011;14279;50.010;8.260;2024-02-21T02:28:23;13.80;;;5.27;;
26656;SDS011;14279;50.010;8.260;2024-02-21T02:30:48;11.57;;;4.70;;
26656;SDS011;14279;50.010;8.260;2024-02-21T02:33:14;20.03;;;5.90;;
26656;SDS011;14279;50.010;8.260;2024-02-21T02:35:40;17.63;;;4.93;;
26656;SDS011;14279;50.010;8.260;2024-02-21T02:38:05;14.20;;;5.60;;
26656;SDS011;14279;50.010;8.260;2024-02-21T02:40:34;16.97;;;5.20;;
26656;SDS011;14279;50.010;8.260;2024-02-21T02:42:59;14.33;;;5.10;;
26656;SDS011;14279;50.010;8.260;2024-02-21T02:45:25;14.93;;;4.97;;
26656;SDS011;14279;50.010;8.260;2024-02-21T02:47:51;12.50;;;4.83;;
26656;SDS011;14279;50.010;8.260;2024-02-21T02:50:19;22.70;;;4.83;;
26656;SDS011;14279;50.010;8.260;2024-02-21T02:52:44;15.83;;;5.13;;
26656;SDS011;14279;50.010;8.260;2024-02-21T02:55:10;14.20;;;5.10;;
26656;SDS011;14279;50.010;8.260;2024-02-21T02:57:35;10.77;;;4.37;;
26656;SDS011;14279;50.010;8.260;2024-02-21T03:00:00;20.93;;;5.53;;
26656;SDS011;14279;50.010;8.260;2024-02-21T03:02:25;16.90;;;5.50;;
26656;SDS011;14279;50.010;8.260;2024-02-21T03:04:51;21.50;;;5.00;;
26656;SDS011;14279;50.010;8.260;2024-02-21T03:07:16;11.10;;;4.83;;
26656;SDS011;14279;50.010;8.260;2024-02-21T03:09:41;17.40;;;5.50;;
26656;SDS011;14279;50.010;8.260;2024-02-21T03:12:10;15.40;;;5.23;;
26656;SDS011;14279;50.010;8.260;2024-02-21T03:14:36;12.07;;;4.83;;
26656;SDS011;14279;50.010;8.260;2024-02-21T03:17:01;14.80;;;5.57;;
26656;SDS011;14279;50.010;8.260;2024-02-21T03:19:27;14.73;;;4.83;;
26656;SDS011;14279;50.010;8.260;2024-02-21T03:21:53;13.77;;;4.70;;
26656;SDS011;14279;50.010;8.260;2024-02-21T03:24:18;19.87;;;4.83;;
26656;SDS011;14279;50.010;8.260;2024-02-21T03:26:44;13.47;;;5.00;;
26656;SDS011;14279;50.010;8.260;2024-02-21T03:29:10;17.60;;;5.30;;
26656;SDS011;14279;50.010;8.260;2024-02-21T03:31:36;15.30;;;5.17;;
26656;SDS011;14279;50.010;8.260;2024-02-21T03:34:01;14.90;;;4.70;;
26656;SDS011;14279;50.010;8.260;2024-02-21T03:36:27;15.47;;;5.97;;
26656;SDS011;14279;50.010;8.260;2024-02-21T03:38:53;21.17;;;6.10;;
26656;SDS011;14279;50.010;8.260;2024-02-21T03:41:19;20.50;;;5.70;;
26656;SDS011;14279;50.010;8.260;2024-02-21T03:43:44;15.23;;;5.57;;
26656;SDS011;14279;50.010;8.260;2024-02-21T03:46:10;24.13;;;5.70;;
26656;SDS011;14279;50.010;8.260;2024-02-21T03:48:35;14.57;;;5.30;;
26656;SDS011;14279;50.010;8.260;2024-02-21T03:51:01;14.90;;;5.70;;
26656;SDS011;14279;50.010;8.260;2024-02-21T03:53:26;12.53;;;5.33;;
26656;SDS011;14279;50.010;8.260;2024-02-21T03:55:51;17.17;;;6.00;;
26656;SDS011;14279;50.010;8.260;2024-02-21T03:58:17;16.70;;;5.67;;
26656;SDS011;14279;50.010;8.260;2024-02-21T04:00:42;20.23;;;6.63;;
26656;SDS011;14279;50.010;8.260;2024-02-21T04:03:07;20.17;;;7.00;;
26656;SDS011;14279;50.010;8.260;2024-02-21T04:05:32;17.43;;;6.03;;
26656;SDS011;14279;50.010;8.260;2024-02-21T04:07:58;15.30;;;5.60;;
26656;SDS011;14279;50.010;8.260;2024-02-21T04:10:23;23.10;;;6.40;;
26656;SDS011;14279;50.010;8.260;2024-02-21T04:12:49;19.60;;;5.83;;
26656;SDS011;14279;50.010;8.260;2024-02-21T04:15:15;14.50;;;6.27;;
26656;SDS011;14279;50.010;8.260;2024-02-21T04:17:41;17.87;;;5.60;;
26656;SDS011;14279;50.010;8.260;2024-02-21T04:20:13;20.00;;;5.70;;
26656;SDS011;14279;50.010;8.260;2024-02-21T04:22:39;25.37;;;5.77;;
26656;SDS011;14279;50.010;8.260;2024-02-21T04:25:04;21.23;;;5.97;;
26656;SDS011;14279;50.010;8.260;2024-02-21T04:27:30;14.23;;;6.30;;
26656;SDS011;14279;50.010;8.260;2024-02-21T04:29:55;18.37;;;6.60;;
26656;SDS011;14279;50.010;8.260;2024-02-21T04:32:21;22.10;;;5.73;;
26656;SDS011;14279;50.010;8.260;2024-02-21T04:34:46;17.70;;;6.27;;
26656;SDS011;14279;50.010;8.260;2024-02-21T04:37:11;20.50;;;7.20;;
26656;SDS011;14279;50.010;8.260;2024-02-21T04:39:36;18.27;;;6.30;;
26656;SDS011;14279;50.010;8.260;2024-02-21T04:42:02;16.00;;;5.70;;
26656;SDS011;14279;50.010;8.260;2024-02-21T04:44:27;18.47;;;5.37;;
26656;SDS011;14279;50.010;8.260;2024-02-21T04:46:52;14.73;;;6.10;;
26656;SDS011;14279;50.010;8.260;2024-02-21T04:49:18;21.90;;;6.70;;
26656;SDS011;14279;50.010;8.260;2024-02-21T04:51:43;15.53;;;5.60;;
26656;SDS011;14279;50.010;8.260;2024-02-21T04:54:08;13.57;;;6.10;;
26656;SDS011;14279;50.010;8.260;2024-02-21T04:56:34;20.17;;;6.33;;
26656;SDS011;14279;50.010;8.260;2024-02-21T04:58:59;12.37;;;5.83;;
26656;SDS011;14279;50.010;8.260;2024-02-21T05:01:24;16.30;;;5.70;;
26656;SDS011;14279;50.010;8.260;2024-02-21T05:03:49;14.00;;;5.23;;
26656;SDS011;14279;50.010;8.260;2024-02-21T05:06:15;15.33;;;5.80;;
26656;SDS011;14279;50.010;8.260;2024-02-21T05:08:40;16.47;;;6.30;;
26656;SDS011;14279;50.010;8.260;2024-02-21T05:11:05;17.33;;;5.67;;
26656;SDS011;14279;50.010;8.260;2024-02-21T05:13:31;15.13;;;6.37;;
26656;SDS011;14279;50.010;8.260;2024-02-21T05:15:56;16.83;;;5.90;;
26656;SDS011;14279;50.010;8.260;2024-02-21T05:18:21;21.27;;;7.03;;
26656;SDS011;14279;50.010;8.260;2024-02-21T05:20:47;11.97;;;5.90;;
26656;SDS011;14279;50.010;8.260;2024-02-21T05:23:12;14.73;;;6.70;;
26656;SDS011;14279;50.010;8.260;2024-02-21T05:25:37;13.80;;;7.17;;
26656;SDS011;14279;50.010;8.260;2024-02-21T05:28:02;11.07;;;6.37;;
26656;SDS011;14279;50.010;8.260;2024-02-21T05:30:28;16.80;;;7.13;;
26656;SDS011;14279;50.010;8.260;2024-02-21T05:32:54;14.13;;;5.83;;
26656;SDS011;14279;50.010;8.260;2024-02-21T05:35:19;15.37;;;6.67;;
26656;SDS011;14279;50.010;8.260;2024-02-21T05:37:46;11.80;;;6.10;;
26656;SDS011;14279;50.010;8.260;2024-02-21T05:40:13;10.80;;;5.63;;
26656;SDS011;14279;50.010;8.260;2024-02-21T05:42:38;18.57;;;6.73;;
26656;SDS011;14279;50.010;8.260;2024-02-21T05:45:04;14.73;;;6.90;;
26656;SDS011;14279;50.010;8.260;2024-02-21T05:47:29;18.57;;;6.90;;
26656;SDS011;14279;50.010;8.260;2024-02-21T05:49:55;23.03;;;8.30;;
26656;SDS011;14279;50.010;8.260;2024-02-21T05:52:20;24.67;;;8.03;;
26656;SDS011;14279;50.010;8.260;2024-02-21T05:54:45;18.13;;;7.53;;
26656;SDS011;14279;50.010;8.260;2024-02-21T05:57:10;16.43;;;7.50;;
26656;SDS011;14279;50.010;8.260;2024-02-21T05:59:37;13.93;;;6.30;;
26656;SDS011;14279;50.010;8.260;2024-02-21T06:02:05;16.63;;;5.90;;
26656;SDS011;14279;50.010;8.260;2024-02-21T06:04:30;13.00;;;5.80;;
26656;SDS011;14279;50.010;8.260;2024-02-21T06:06:55;21.30;;;7.33;;
26656;SDS011;14279;50.010;8.260;2024-02-21T06:09:21;16.87;;;6.10;;
26656;SDS011;14279;50.010;8.260;2024-02-21T06:11:46;11.60;;;6.03;;
26656;SDS011;14279;50.010;8.260;2024-02-21T06:14:13;12.23;;;6.40;;
26656;SDS011;14279;50.010;8.260;2024-02-21T06:16:38;16.57;;;6.10;;
26656;SDS011;14279;50.010;8.260;2024-02-21T06:19:03;12.43;;;6.13;;
26656;SDS011;14279;50.010;8.260;2024-02-21T06:21:29;15.43;;;6.40;;
26656;SDS011;14279;50.010;8.260;2024-02-21T06:23:55;20.60;;;6.63;;
26656;SDS011;14279;50.010;8.260;2024-02-21T06:26:20;16.93;;;6.40;;
26656;SDS011;14279;50.010;8.260;2024-02-21T06:28:45;10.10;;;5.83;;
26656;SDS011;14279;50.010;8.260;2024-02-21T06:31:11;14.30;;;6.43;;
26656;SDS011;14279;50.010;8.260;2024-02-21T06:33:37;17.70;;;7.47;;
26656;SDS011;14279;50.010;8.260;2024-02-21T06:36:02;14.80;;;7.53;;
26656;SDS011;14279;50.010;8.260;2024-02-21T06:38:27;16.60;;;7.70;;
26656;SDS011;14279;50.010;8.260;2024-02-21T06:40:53;17.60;;;8.57;;
26656;SDS011;14279;50.010;8.260;2024-02-21T06:43:19;16.20;;;7.77;;
26656;SDS011;14279;50.010;8.260;2024-02-21T06:45:45;19.80;;;7.63;;
26656;SDS011;14279;50.010;8.260;2024-02-21T06:48:15;14.90;;;8.17;;
26656;SDS011;14279;50.010;8.260;2024-02-21T06:50:40;21.10;;;8.60;;
26656;SDS011;14279;50.010;8.260;2024-02-21T06:53:06;17.30;;;8.10;;
26656;SDS011;14279;50.010;8.260;2024-02-21T06:55:31;21.27;;;9.63;;
26656;SDS011;14279;50.010;8.260;2024-02-21T06:57:56;21.93;;;9.40;;
26656;SDS011;14279;50.010;8.260;2024-02-21T07:00:21;21.73;;;10.10;;
26656;SDS011;14279;50.010;8.260;2024-02-21T07:02:48;16.33;;;9.27;;
26656;SDS011;14279;50.010;8.260;2024-02-21T07:05:13;22.33;;;10.27;;
26656;SDS011;14279;50.010;8.260;2024-02-21T07:07:38;28.53;;;10.77;;
26656;SDS011;14279;50.010;8.260;2024-02-21T07:10:06;21.27;;;11.33;;
26656;SDS011;14279;50.010;8.260;2024-02-21T07:12:31;26.27;;;11.77;;
26656;SDS011;14279;50.010;8.260;2024-02-21T07:14:56;19.20;;;11.30;;
26656;SDS011;14279;50.010;8.260;2024-02-21T07:17:22;27.73;;;13.07;;
26656;SDS011;14279;50.010;8.260;2024-02-21T07:19:47;22.67;;;11.97;;
26656;SDS011;14279;50.010;8.260;2024-02-21T07:22:12;19.30;;;11.40;;
26656;SDS011;14279;50.010;8.260;2024-02-21T07:24:37;22.73;;;12.30;;
26656;SDS011;14279;50.010;8.260;2024-02-21T07:27:03;27.53;;;12.20;;
26656;SDS011;14279;50.010;8.260;2024-02-21T07:29:29;20.23;;;12.00;;
26656;SDS011;14279;50.010;8.260;2024-02-21T07:31:55;21.33;;;10.43;;
26656;SDS011;14279;50.010;8.260;2024-02-21T07:34:20;24.93;;;12.00;;
26656;SDS011;14279;50.010;8.260;2024-02-21T07:36:46;20.30;;;10.63;;
26656;SDS011;14279;50.010;8.260;2024-02-21T07:39:11;21.43;;;11.30;;
26656;SDS011;14279;50.010;8.260;2024-02-21T07:41:37;19.70;;;10.30;;
26656;SDS011;14279;50.010;8.260;2024-02-21T07:44:04;22.03;;;13.00;;
26656;SDS011;14279;50.010;8.260;2024-02-21T07:46:29;25.60;;;12.00;;
26656;SDS011;14279;50.010;8.260;2024-02-21T07:48:55;19.63;;;10.63;;
26656;SDS011;14279;50.010;8.260;2024-02-21T07:51:21;22.23;;;11.90;;
26656;SDS011;14279;50.010;8.260;2024-02-21T07:53:46;23.57;;;10.93;;
26656;SDS011;14279;50.010;8.260;2024-02-21T07:56:12;22.47;;;11.90;;
26656;SDS011;14279;50.010;8.260;2024-02-21T07:58:41;20.97;;;11.60;;
26656;SDS011;14279;50.010;8.260;2024-02-21T08:01:07;21.93;;;11.77;;
26656;SDS011;14279;50.010;8.260;2024-02-21T08:03:33;21.30;;;11.50;;
26656;SDS011;14279;50.010;8.260;2024-02-21T08:05:59;25.87;;;11.50;;
26656;SDS011;14279;50.010;8.260;2024-02-21T08:08:24;22.67;;;12.53;;
26656;SDS011;14279;50.010;8.260;2024-02-21T08:10:49;28.10;;;11.77;;
26656;SDS011;14279;50.010;8.260;2024-02-21T08:13:15;21.40;;;10.87;;
26656;SDS011;14279;50.010;8.260;2024-02-21T08:15:40;23.10;;;10.50;;
26656;SDS011;14279;50.010;8.260;2024-02-21T08:18:07;19.40;;;10.20;;
26656;SDS011;14279;50.010;8.260;2024-02-21T08:20:32;25.83;;;11.73;;
26656;SDS011;14279;50.010;8.260;2024-02-21T08:22:57;31.97;;;8.53;;
26656;SDS011;14279;50.010;8.260;2024-02-21T08:25:23;15.10;;;8.83;;
26656;SDS011;14279;50.010;8.260;2024-02-21T08:27:48;20.37;;;8.87;;
26656;SDS011;14279;50.010;8.260;2024-02-21T08:30:13;16.27;;;7.80;;
26656;SDS011;14279;50.010;8.260;2024-02-21T08:32:39;13.93;;;7.50;;
26656;SDS011;14279;50.010;8.260;2024-02-21T08:35:04;18.50;;;7.73;;
26656;SDS011;14279;50.010;8.260;2024-02-21T08:37:30;14.13;;;6.60;;
26656;SDS011;14279;50.010;8.260;2024-02-21T08:39:55;20.13;;;6.37;;
26656;SDS011;14279;50.010;8.260;2024-02-21T08:42:21;14.53;;;6.33;;
26656;SDS011;14279;50.010;8.260;2024-02-21T08:44:46;13.53;;;5.80;;
26656;SDS011;14279;50.010;8.260;2024-02-21T08:47:11;16.10;;;5.97;;
26656;SDS011;14279;50.010;8.260;2024-02-21T08:49:37;15.80;;;6.03;;
26656;SDS011;14279;50.010;8.260;2024-02-21T08:52:03;11.30;;;4.63;;
26656;SDS011;14279;50.010;8.260;2024-02-21T08:54:28;19.03;;;5.20;;
26656;SDS011;14279;50.010;8.260;2024-02-21T08:56:53;13.00;;;4.80;;
26656;SDS011;14279;50.010;8.260;2024-02-21T08:59:19;15.13;;;4.37;;
26656;SDS011;14279;50.010;8.260;2024-02-21T09:01:45;8.00;;;3.83;;
26656;SDS011;14279;50.010;8.260;2024-02-21T09:04:10;13.30;;;5.50;;
26656;SDS011;14279;50.010;8.260;2024-02-21T09:06:36;23.67;;;5.17;;
26656;SDS011;14279;50.010;8.260;2024-02-21T09:09:04;16.90;;;4.47;;
26656;SDS011;14279;50.010;8.260;2024-02-21T09:11:29;8.97;;;4.00;;
26656;SDS011;14279;50.010;8.260;2024-02-21T09:13:55;11.03;;;4.37;;
26656;SDS011;14279;50.010;8.260;2024-02-21T09:16:20;14.50;;;4.40;;
26656;SDS011;14279;50.010;8.260;2024-02-21T09:18:45;8.50;;;4.10;;
26656;SDS011;14279;50.010;8.260;2024-02-21T09:21:11;20.27;;;5.23;;
26656;SDS011;14279;50.010;8.260;2024-02-21T09:23:37;17.80;;;4.30;;
26656;SDS011;14279;50.010;8.260;2024-02-21T09:26:02;16.00;;;4.87;;
26656;SDS011;14279;50.010;8.260;2024-02-21T09:28:29;6.60;;;3.67;;
26656;SDS011;14279;50.010;8.260;2024-02-21T09:30:54;12.70;;;5.10;;
26656;SDS011;14279;50.010;8.260;2024-02-21T09:33:20;12.30;;;5.10;;
26656;SDS011;14279;50.010;8.260;2024-02-21T09:35:45;13.90;;;4.97;;
26656;SDS011;14279;50.010;8.260;2024-02-21T09:38:10;9.70;;;4.50;;
26656;SDS011;14279;50.010;8.260;2024-02-21T09:40:35;12.47;;;5.30;;
26656;SDS011;14279;50.010;8.260;2024-02-21T09:43:04;10.60;;;4.33;;
26656;SDS011;14279;50.010;8.260;2024-02-21T09:45:31;12.40;;;5.13;;
26656;SDS011;14279;50.010;8.260;2024-02-21T09:48:06;16.30;;;6.13;;
26656;SDS011;14279;50.010;8.260;2024-02-21T09:50:35;14.13;;;5.57;;
26656;SDS011;14279;50.010;8.260;2024-02-21T09:53:03;17.57;;;6.17;;
26656;SDS011;14279;50.010;8.260;2024-02-21T09:55:31;14.30;;;4.30;;
26656;SDS011;14279;50.010;8.260;2024-02-21T09:57:59;10.43;;;4.70;;
26656;SDS011;14279;50.010;8.260;2024-02-21T10:00:26;14.17;;;4.80;;
26656;SDS011;14279;50.010;8.260;2024-02-21T10:02:53;10.63;;;5.00;;
26656;SDS011;14279;50.010;8.260;2024-02-21T10:05:18;12.27;;;4.40;;
26656;SDS011;14279;50.010;8.260;2024-02-21T10:07:43;16.10;;;4.50;;
26656;SDS011;14279;50.010;8.260;2024-02-21T10:10:09;11.93;;;4.50;;
26656;SDS011;14279;50.010;8.260;2024-02-21T10:12:34;15.53;;;4.50;;
26656;SDS011;14279;50.010;8.260;2024-02-21T10:15:00;13.23;;;3.93;;
26656;SDS011;14279;50.010;8.260;2024-02-21T10:17:29;13.03;;;4.10;;
26656;SDS011;14279;50.010;8.260;2024-02-21T10:19:55;11.90;;;3.97;;
26656;SDS011;14279;50.010;8.260;2024-02-21T10:22:20;9.27;;;3.53;;
26656;SDS011;14279;50.010;8.260;2024-02-21T10:24:46;14.10;;;3.80;;
26656;SDS011;14279;50.010;8.260;2024-02-21T10:27:11;9.00;;;4.17;;
26656;SDS011;14279;50.010;8.260;2024-02-21T10:29:37;15.93;;;4.70;;
26656;SDS011;14279;50.010;8.260;2024-02-21T10:32:09;12.70;;;3.87;;
26656;SDS011;14279;50.010;8.260;2024-02-21T10:34:36;11.07;;;3.93;;
26656;SDS011;14279;50.010;8.260;2024-02-21T10:37:02;15.60;;;3.87;;
26656;SDS011;14279;50.010;8.260;2024-02-21T10:39:29;13.43;;;4.50;;
26656;SDS011;14279;50.010;8.260;2024-02-21T10:41:56;11.67;;;3.70;;
26656;SDS011;14279;50.010;8.260;2024-02-21T10:44:26;11.73;;;4.50;;
26656;SDS011;14279;50.010;8.260;2024-02-21T10:46:54;9.00;;;3.63;;
26656;SDS011;14279;50.010;8.260;2024-02-21T10:49:22;12.40;;;4.13;;
26656;SDS011;14279;50.010;8.260;2024-02-21T10:51:54;14.63;;;4.20;;
26656;SDS011;14279;50.010;8.260;2024-02-21T10:57:10;10.33;;;4.23;;
26656;SDS011;14279;50.010;8.260;2024-02-21T10:59:38;12.10;;;5.03;;
26656;SDS011;14279;50.010;8.260;2024-02-21T11:02:05;12.57;;;3.53;;
26656;SDS011;14279;50.010;8.260;2024-02-21T11:04:30;13.47;;;4.03;;
26656;SDS011;14279;50.010;8.260;2024-02-21T11:06:57;9.90;;;3.67;;
26656;SDS011;14279;50.010;8.260;2024-02-21T11:09:32;12.07;;;3.73;;
26656;SDS011;14279;50.010;8.260;2024-02-21T11:11:58;10.53;;;4.60;;
26656;SDS011;14279;50.010;8.260;2024-02-21T11:14:27;12.83;;;4.10;;
26656;SDS011;14279;50.010;8.260;2024-02-21T11:16:53;19.53;;;5.00;;
26656;SDS011;14279;50.010;8.260;2024-02-21T11:19:19;9.07;;;3.97;;
26656;SDS011;14279;50.010;8.260;2024-02-21T11:21:46;10.53;;;3.70;;
26656;SDS011;14279;50.010;8.260;2024-02-21T11:24:13;17.40;;;3.67;;
26656;SDS011;14279;50.010;8.260;2024-02-21T11:26:39;15.17;;;3.53;;
26656;SDS011;14279;50.010;8.260;2024-02-21T11:29:07;13.03;;;3.50;;
26656;SDS011;14279;50.010;8.260;2024-02-21T11:31:43;14.83;;;3.50;;
26656;SDS011;14279;50.010;8.260;2024-02-21T11:34:11;17.70;;;4.17;;
26656;SDS011;14279;50.010;8.260;2024-02-21T11:36:45;14.70;;;3.27;;
26656;SDS011;14279;50.010;8.260;2024-02-21T11:39:13;9.90;;;3.10;;
26656;SDS011;14279;50.010;8.260;2024-02-21T11:41:42;11.07;;;3.57;;
26656;SDS011;14279;50.010;8.260;2024-02-21T11:44:07;8.93;;;3.30;;
26656;SDS011;14279;50.010;8.260;2024-02-21T11:46:33;13.23;;;3.80;;
26656;SDS011;14279;50.010;8.260;2024-02-21T11:48:58;15.13;;;3.97;;
26656;SDS011;14279;50.010;8.260;2024-02-21T11:51:26;16.23;;;3.70;;
26656;SDS011;14279;50.010;8.260;2024-02-21T11:53:52;7.50;;;3.03;;
26656;SDS011;14279;50.010;8.260;2024-02-21T11:56:18;9.70;;;3.20;;
26656;SDS011;14279;50.010;8.260;2024-02-21T11:58:45;15.03;;;3.50;;
26656;SDS011;14279;50.010;8.260;2024-02-21T12:01:12;7.20;;;3.47;;
26656;SDS011;14279;50.010;8.260;2024-02-21T12:03:37;17.83;;;4.50;;
26656;SDS011;14279;50.010;8.260;2024-02-21T12:06:03;17.70;;;3.87;;
26656;SDS011;14279;50.010;8.260;2024-02-21T12:08:40;15.53;;;3.50;;
26656;SDS011;14279;50.010;8.260;2024-02-21T12:11:15;14.80;;;3.63;;
26656;SDS011;14279;50.010;8.260;2024-02-21T12:13:41;8.07;;;3.00;;
26656;SDS011;14279;50.010;8.260;2024-02-21T12:16:07;22.10;;;5.10;;
26656;SDS011;14279;50.010;8.260;2024-02-21T12:18:32;16.00;;;3.53;;
26656;SDS011;14279;50.010;8.260;2024-02-21T12:20:58;18.40;;;3.90;;
26656;SDS011;14279;50.010;8.260;2024-02-21T12:23:26;14.30;;;3.87;;
26656;SDS011;14279;50.010;8.260;2024-02-21T12:25:52;13.93;;;4.40;;
26656;SDS011;14279;50.010;8.260;2024-02-21T12:28:20;16.10;;;4.03;;
26656;SDS011;14279;50.010;8.260;2024-02-21T12:30:46;14.00;;;4.13;;
26656;SDS011;14279;50.010;8.260;2024-02-21T12:33:12;18.00;;;5.13;;
26656;SDS011;14279;50.010;8.260;2024-02-21T12:35:39;15.97;;;4.20;;
26656;SDS011;14279;50.010;8.260;2024-02-21T12:38:04;16.90;;;4.37;;
26656;SDS011;14279;50.010;8.260;2024-02-21T12:40:29;12.93;;;4.07;;
26656;SDS011;14279;50.010;8.260;2024-02-21T12:42:58;13.80;;;3.80;;
26656;SDS011;14279;50.010;8.260;2024-02-21T12:45:29;14.17;;;4.40;;
26656;SDS011;14279;50.010;8.260;2024-02-21T12:47:55;13.53;;;3.90;;
26656;SDS011;14279;50.010;8.260;2024-02-21T12:50:20;10.33;;;3.70;;
26656;SDS011;14279;50.010;8.260;2024-02-21T12:52:47;10.77;;;4.03;;
26656;SDS011;14279;50.010;8.260;2024-02-21T12:55:14;13.20;;;3.90;;
26656;SDS011;14279;50.010;8.260;2024-02-21T12:57:41;14.73;;;3.80;;
26656;SDS011;14279;50.010;8.260;2024-02-21T13:00:06;10.87;;;3.97;;
26656;SDS011;14279;50.010;8.260;2024-02-21T13:02:34;14.13;;;4.60;;
26656;SDS011;14279;50.010;8.260;2024-02-21T13:05:01;11.93;;;3.47;;
26656;SDS011;14279;50.010;8.260;2024-02-21T13:07:28;12.20;;;3.77;;
26656;SDS011;14279;50.010;8.260;2024-02-21T13:09:54;13.33;;;3.10;;
26656;SDS011;14279;50.010;8.260;2024-02-21T13:12:19;12.23;;;4.27;;
26656;SDS011;14279;50.010;8.260;2024-02-21T13:14:45;15.97;;;3.50;;
26656;SDS011;14279;50.010;8.260;2024-02-21T13:17:10;17.60;;;3.47;;
26656;SDS011;14279;50.010;8.260;2024-02-21T13:19:35;13.17;;;3.90;;
26656;SDS011;14279;50.010;8.260;2024-02-21T13:22:00;12.33;;;3.70;;
26656;SDS011;14279;50.010;8.260;2024-02-21T13:24:27;13.57;;;3.63;;
26656;SDS011;14279;50.010;8.260;2024-02-21T13:26:52;10.77;;;3.30;;
26656;SDS011;14279;50.010;8.260;2024-02-21T13:29:17;9.50;;;3.70;;
26656;SDS011;14279;50.010;8.260;2024-02-21T13:31:43;7.30;;;3.10;;
26656;SDS011;14279;50.010;8.260;2024-02-21T13:34:09;9.20;;;3.60;;
26656;SDS011;14279;50.010;8.260;2024-02-21T13:36:34;15.20;;;3.70;;
26656;SDS011;14279;50.010;8.260;2024-02-21T13:38:59;20.00;;;3.93;;
26656;SDS011;14279;50.010;8.260;2024-02-21T13:41:25;9.20;;;2.90;;
26656;SDS011;14279;50.010;8.260;2024-02-21T13:43:50;8.20;;;3.30;;
26656;SDS011;14279;50.010;8.260;2024-02-21T13:46:16;10.83;;;4.10;;
26656;SDS011;14279;50.010;8.260;2024-02-21T13:48:41;12.30;;;4.00;;
26656;SDS011;14279;50.010;8.260;2024-02-21T13:51:06;12.10;;;3.60;;
26656;SDS011;14279;50.010;8.260;2024-02-21T13:53:33;11.17;;;3.83;;
26656;SDS011;14279;50.010;8.260;2024-02-21T13:55:59;12.00;;;3.03;;
26656;SDS011;14279;50.010;8.260;2024-02-21T13:58:25;13.30;;;4.03;;
26656;SDS011;14279;50.010;8.260;2024-02-21T14:00:51;12.03;;;3.10;;
26656;SDS011;14279;50.010;8.260;2024-02-21T14:03:16;11.47;;;3.27;;
26656;SDS011;14279;50.010;8.260;2024-02-21T14:05:43;10.50;;;2.90;;
26656;SDS011;14279;50.010;8.260;2024-02-21T14:08:08;11.60;;;2.90;;
26656;SDS011;14279;50.010;8.260;2024-02-21T14:10:33;13.63;;;3.40;;
26656;SDS011;14279;50.010;8.260;2024-02-21T14:12:59;10.43;;;2.97;;
26656;SDS011;14279;50.010;8.260;2024-02-21T14:15:24;9.63;;;3.10;;
26656;SDS011;14279;50.010;8.260;2024-02-21T14:17:50;10.10;;;3.10;;
26656;SDS011;14279;50.010;8.260;2024-02-21T14:20:15;11.63;;;2.70;;
26656;SDS011;14279;50.010;8.260;2024-02-21T14:22:40;8.70;;;3.00;;
26656;SDS011;14279;50.010;8.260;2024-02-21T14:25:06;14.60;;;3.53;;
26656;SDS011;14279;50.010;8.260;2024-02-21T14:27:31;12.00;;;3.17;;
26656;SDS011;14279;50.010;8.260;2024-02-21T14:29:57;3.27;;;2.30;;